KMRN/MRN METAR and TAF weather

Enter ICAO airport designator
Station Type Date Time Source
KMRN METAR 2019/04/19 10:20 UTC NOAA

KMRN 191020Z AUTO 16004KT 10SM BKN021 BKN027 OVC032 20/17 A2974 RMK AO2 T01960165


Station Type Date Time Source
KMRN Decoded METAR 2019/04/19 10:20 UTC NOAA

Morganton, Morganton-Lenoir Airport, NC, United States (KMRN) 35-49-17N 081-36-39W
Apr 19, 2019 - 06:20 AM EDT / 2019.04.19 1020 UTC
Wind: from the SSE (160 degrees) at 5 MPH (4 KT):0
Visibility: 10 mile(s):0
Sky conditions: overcast
Temperature: 67.3 F (19.6 C)
Dew Point: 61.7 F (16.5 C)
Relative Humidity: 82%
Pressure (altimeter): 29.74 in. Hg (1007 hPa)
ob: KMRN 191020Z AUTO 16004KT 10SM BKN021 BKN027 OVC032 20/17 A2974 RMK AO2 T01960165
cycle: 10

Station Type Date Time Source
KMRN TAF UTC NOAA

Error!

Example: see airport list